createdAt,value
2022-08-06T00:08:39.683Z,1022.15
2022-08-06T00:18:46.226Z,1022.31
2022-08-06T00:28:52.426Z,1022.45
2022-08-06T00:38:59.442Z,1022.44
2022-08-06T00:49:10.871Z,1022.44
2022-08-06T00:59:17.433Z,1022.58
2022-08-06T01:09:25.049Z,1022.71
2022-08-06T01:21:20.716Z,1022.68
2022-08-06T01:29:42.755Z,1022.74
2022-08-06T01:39:53.658Z,1022.84
2022-08-06T01:50:04.267Z,1022.75
2022-08-06T02:00:11.379Z,1022.73
2022-08-06T02:10:18.866Z,1022.80
2022-08-06T02:20:37.267Z,1022.76
2022-08-06T02:30:42.397Z,1023.12
2022-08-06T02:40:48.591Z,1023.14
2022-08-06T02:50:55.825Z,1023.29
2022-08-06T03:01:02.950Z,1023.34
2022-08-06T03:11:14.840Z,1023.50
2022-08-06T03:21:21.438Z,1023.70
2022-08-06T03:31:33.732Z,1023.85
2022-08-06T03:41:55.627Z,1024.00
2022-08-06T03:51:54.518Z,1024.24
2022-08-06T04:02:00.826Z,1024.35
2022-08-06T04:12:13.087Z,1024.38
2022-08-06T04:23:05.061Z,1024.40
2022-08-06T04:32:32.238Z,1024.61
2022-08-06T04:42:39.483Z,1024.71
2022-08-06T04:52:50.001Z,1024.84
2022-08-06T05:02:56.640Z,1025.04
2022-08-06T05:13:07.352Z,1025.16
2022-08-06T05:23:19.130Z,1025.24
2022-08-06T05:33:26.582Z,1025.51
2022-08-06T05:43:59.525Z,1025.51
2022-08-06T05:54:02.523Z,1025.66
2022-08-06T06:03:59.107Z,1025.75
2022-08-06T06:14:06.775Z,1025.95
2022-08-06T06:24:13.986Z,1025.84
2022-08-06T06:34:23.400Z,1026.01
2022-08-06T06:44:49.435Z,1026.08
2022-08-06T06:54:41.769Z,1026.14
2022-08-06T07:04:49.868Z,1026.20
2022-08-06T07:15:01.088Z,1026.26
2022-08-06T07:25:08.316Z,1026.40
2022-08-06T07:35:20.232Z,1026.46
2022-08-06T07:45:32.304Z,1026.45
2022-08-06T07:55:40.974Z,1026.56
2022-08-06T08:06:01.087Z,1026.64
2022-08-06T08:16:00.285Z,1026.79
2022-08-06T08:26:06.228Z,1026.75
2022-08-06T08:36:13.175Z,1026.75
2022-08-06T08:46:30.844Z,1026.75
2022-08-06T08:57:07.166Z,1026.78
2022-08-06T09:06:49.965Z,1026.75
2022-08-06T09:16:57.544Z,1026.83
2022-08-06T09:27:32.641Z,1026.80
2022-08-06T09:37:18.223Z,1026.80
2022-08-06T09:47:32.938Z,1026.84
2022-08-06T09:57:39.810Z,1026.94
2022-08-06T10:07:52.377Z,1026.84
2022-08-06T10:17:59.604Z,1026.93
2022-08-06T10:28:06.485Z,1026.95
2022-08-06T10:38:14.712Z,1026.88
2022-08-06T10:48:58.406Z,1026.88
2022-08-06T10:58:32.611Z,1026.93
2022-08-06T11:10:02.749Z,1026.80
2022-08-06T11:20:14.152Z,1026.77
2022-08-06T11:30:26.892Z,1026.76
2022-08-06T11:40:32.374Z,1026.68
2022-08-06T11:50:41.141Z,1026.60
2022-08-06T12:00:48.417Z,1026.63
2022-08-06T12:10:56.500Z,1026.67
2022-08-06T12:21:05.741Z,1026.67
2022-08-06T12:31:36.192Z,1026.56
2022-08-06T12:41:46.794Z,1026.54
2022-08-06T12:51:41.296Z,1026.39
2022-08-06T13:02:10.517Z,1026.46
2022-08-06T13:12:00.873Z,1026.39
2022-08-06T13:22:08.362Z,1026.35
2022-08-06T13:32:28.189Z,1026.43
2022-08-06T13:42:29.182Z,1026.43
2022-08-06T13:52:38.242Z,1026.39
2022-08-06T14:02:50.598Z,1026.28
2022-08-06T14:13:01.019Z,1026.35
2022-08-06T14:23:11.245Z,1026.32
2022-08-06T14:33:36.337Z,1026.33
2022-08-06T14:43:31.875Z,1026.26
2022-08-06T14:53:40.468Z,1026.18
2022-08-06T15:03:47.293Z,1026.22
2022-08-06T15:13:57.342Z,1026.20
2022-08-06T15:24:06.474Z,1026.16
2022-08-06T15:34:20.507Z,1026.18
2022-08-06T15:44:28.717Z,1026.05
2022-08-06T15:54:38.865Z,1026.01
2022-08-06T16:04:46.868Z,1025.97
2022-08-06T16:14:57.653Z,1025.94
2022-08-06T16:25:05.972Z,1025.92
2022-08-06T16:35:21.914Z,1025.80
2022-08-06T16:45:37.244Z,1025.84
2022-08-06T16:55:42.537Z,1025.88
2022-08-06T17:05:52.867Z,1025.97
2022-08-06T17:16:01.058Z,1026.01
2022-08-06T17:26:08.804Z,1025.97
2022-08-06T17:46:36.514Z,1026.01
2022-08-06T17:56:44.529Z,1026.12
2022-08-06T18:06:51.756Z,1026.16
2022-08-06T18:16:59.206Z,1026.17
2022-08-06T18:27:09.311Z,1026.23
2022-08-06T18:37:20.750Z,1026.32
2022-08-06T18:47:28.114Z,1026.41
2022-08-06T18:58:03.703Z,1026.53
2022-08-06T19:07:49.788Z,1026.59
2022-08-06T19:18:14.025Z,1026.77
2022-08-06T19:28:35.176Z,1026.81
2022-08-06T19:38:21.881Z,1026.89
2022-08-06T19:48:32.956Z,1026.92
2022-08-06T19:58:43.849Z,1026.97
2022-08-06T20:08:51.832Z,1027.02
2022-08-06T20:18:59.397Z,1027.09
2022-08-06T20:29:21.918Z,1027.12
2022-08-06T20:39:20.434Z,1027.19
2022-08-06T20:49:47.898Z,1027.23
2022-08-06T20:59:42.191Z,1027.27
2022-08-06T21:09:49.387Z,1027.27
2022-08-06T21:20:10.686Z,1027.30
2022-08-06T21:30:11.144Z,1027.37
2022-08-06T21:40:28.924Z,1027.36
2022-08-06T21:50:30.751Z,1027.38
2022-08-06T22:00:37.632Z,1027.32
2022-08-06T22:10:44.223Z,1027.38
2022-08-06T22:20:55.363Z,1027.42
2022-08-06T22:31:05.541Z,1027.38
2022-08-06T22:41:14.905Z,1027.39
2022-08-06T22:51:28.469Z,1027.38
2022-08-06T23:02:03.470Z,1027.27
2022-08-06T23:11:59.158Z,1027.24
2022-08-06T23:22:04.702Z,1027.24
2022-08-06T23:32:11.662Z,1027.26
2022-08-06T23:42:23.493Z,1027.24
2022-08-06T23:52:32.421Z,1027.28
